Time;durP1;ratioP1;P1;durP2;ratioP2;P2;SDS_P1;SDS_P2;PMS_P1;PMS_P2;Temp;Humidity;BMP_temperature;BMP_pressure;BME280_temperature;BME280_humidity;BME280_pressure;Samples;Min_cycle;Max_cycle;Signal;HPM_P1;HPM_P2
2022/05/07 00:02:09;;;;;;;47.35;31.15;;;12.20;99.90;;;;;;5074190;28;20061;-62
2022/05/07 00:04:37;;;;;;;51.08;31.63;;;12.30;99.90;;;;;;5057688;28;20057;-62
2022/05/07 00:07:04;;;;;;;45.70;30.65;;;12.30;99.90;;;;;;5057431;28;20092;-62
2022/05/07 00:09:31;;;;;;;56.67;32.47;;;12.30;99.90;;;;;;5074623;28;20087;-62
2022/05/07 00:12:00;;;;;;;48.85;31.27;;;12.30;99.90;;;;;;5075259;28;20479;-62
2022/05/07 00:14:27;;;;;;;46.03;30.52;;;12.40;99.90;;;;;;5057665;28;20049;-63
2022/05/07 00:19:38;;;;;;;44.00;30.58;;;12.40;99.90;;;;;;5075255;28;20047;-63
2022/05/07 00:22:05;;;;;;;49.67;31.50;;;12.40;99.90;;;;;;5057345;28;20491;-63
2022/05/07 00:24:32;;;;;;;48.65;30.73;;;12.50;99.90;;;;;;5074627;28;20080;-62
2022/05/07 00:27:00;;;;;;;47.58;30.23;;;12.50;99.90;;;;;;5057042;28;20059;-63
2022/05/07 00:29:27;;;;;;;44.25;29.30;;;12.50;99.90;;;;;;5057368;28;20411;-63
2022/05/07 00:31:54;;;;;;;46.88;31.83;;;12.60;99.90;;;;;;5055972;28;20515;-63
2022/05/07 00:34:21;;;;;;;44.30;30.10;;;12.60;99.90;;;;;;5075039;28;20052;-62
2022/05/07 00:36:48;;;;;;;40.97;27.80;;;12.70;99.90;;;;;;5073916;28;20076;-62
2022/05/07 00:39:15;;;;;;;47.17;30.00;;;12.70;99.90;;;;;;5074733;28;20080;-62
2022/05/07 00:41:42;;;;;;;51.03;31.65;;;12.80;99.90;;;;;;5056906;28;20095;-62
2022/05/07 00:44:10;;;;;;;46.22;30.02;;;12.70;99.90;;;;;;5052661;28;20080;-62
2022/05/07 00:46:38;;;;;;;41.45;29.35;;;12.70;99.90;;;;;;5054881;28;20087;-62
2022/05/07 00:49:04;;;;;;;46.47;28.67;;;12.70;99.90;;;;;;5074522;28;20182;-62
2022/05/07 00:51:33;;;;;;;42.60;28.50;;;12.70;99.90;;;;;;5055064;28;20080;-62
2022/05/07 00:54:00;;;;;;;45.65;30.77;;;12.70;99.90;;;;;;5055920;28;20076;-62
2022/05/07 00:56:27;;;;;;;43.70;29.80;;;12.70;99.90;;;;;;5056448;28;20076;-62
2022/05/07 00:58:56;;;;;;;42.92;28.45;;;12.70;99.90;;;;;;5063957;28;20088;-62
2022/05/07 01:01:24;;;;;;;45.13;29.92;;;12.70;99.90;;;;;;5074276;28;20072;-62
2022/05/07 01:03:51;;;;;;;43.58;28.20;;;12.70;99.90;;;;;;5056270;28;20459;-62
2022/05/07 01:06:18;;;;;;;44.47;29.13;;;12.70;99.90;;;;;;5073375;28;20076;-62
2022/05/07 01:08:46;;;;;;;47.60;31.40;;;12.70;99.90;;;;;;5074021;28;20044;-62
2022/05/07 01:11:14;;;;;;;48.55;30.33;;;12.70;99.90;;;;;;5073123;28;20492;-62
2022/05/07 01:13:42;;;;;;;47.95;29.92;;;12.70;99.90;;;;;;5055529;28;20079;-62
2022/05/07 01:16:08;;;;;;;50.30;30.60;;;12.70;99.90;;;;;;5073750;28;20084;-62
2022/05/07 01:18:36;;;;;;;46.17;30.10;;;12.70;99.90;;;;;;5073599;28;20075;-62
2022/05/07 01:21:13;;;;;;;46.10;27.98;;;12.60;99.90;;;;;;5055292;28;20523;-61
2022/05/07 01:23:41;;;;;;;42.90;28.63;;;12.60;99.90;;;;;;5074103;28;20052;-61
2022/05/07 01:26:08;;;;;;;46.63;29.27;;;12.70;99.90;;;;;;5072943;28;20058;-62
2022/05/07 01:28:35;;;;;;;45.22;29.05;;;12.60;99.90;;;;;;5056024;28;20090;-62
2022/05/07 01:31:03;;;;;;;45.70;28.95;;;12.60;99.90;;;;;;5055725;28;20083;-62
2022/05/07 01:33:33;;;;;;;44.47;29.17;;;12.70;99.90;;;;;;5055121;28;20084;-61
2022/05/07 01:36:01;;;;;;;45.40;29.58;;;12.70;99.90;;;;;;5055891;28;20083;-62
2022/05/07 01:38:29;;;;;;;43.72;28.92;;;12.70;99.90;;;;;;5056551;28;20056;-62
2022/05/07 01:40:56;;;;;;;44.47;28.33;;;12.80;99.90;;;;;;5035055;28;20084;-62
2022/05/07 01:43:25;;;;;;;44.33;28.00;;;12.80;99.90;;;;;;5035825;28;20497;-62
2022/05/07 01:45:52;;;;;;;42.75;27.33;;;12.80;99.90;;;;;;5058917;28;20106;-62
2022/05/07 01:48:19;;;;;;;46.03;27.73;;;12.90;99.90;;;;;;5055081;28;20150;-62
2022/05/07 01:50:46;;;;;;;46.13;28.77;;;12.90;99.90;;;;;;5051918;28;20128;-63
2022/05/07 01:53:14;;;;;;;47.45;29.33;;;12.90;99.90;;;;;;5037365;28;20056;-62
2022/05/07 01:55:43;;;;;;;41.70;27.65;;;12.90;99.90;;;;;;5034489;28;20049;-62
2022/05/07 01:58:11;;;;;;;47.00;28.02;;;12.90;99.90;;;;;;5069756;28;20084;-63
2022/05/07 02:00:40;;;;;;;45.20;28.92;;;12.90;99.90;;;;;;5074009;28;20128;-63
2022/05/07 02:03:07;;;;;;;45.15;28.10;;;12.90;99.90;;;;;;5040561;28;20523;-63
2022/05/07 02:05:34;;;;;;;40.63;26.38;;;13.00;99.90;;;;;;5034900;28;20049;-63
2022/05/07 02:08:03;;;;;;;40.60;27.50;;;13.00;99.90;;;;;;5052464;28;20095;-62
2022/05/07 02:10:30;;;;;;;47.42;28.67;;;13.00;99.90;;;;;;5052779;28;20493;-62
2022/05/07 02:12:58;;;;;;;42.13;28.73;;;13.00;99.90;;;;;;5035152;28;20080;-63
2022/05/07 02:15:25;;;;;;;44.90;28.13;;;13.00;99.90;;;;;;5052069;28;20111;-63
2022/05/07 02:17:52;;;;;;;45.65;26.90;;;13.00;99.90;;;;;;5035282;28;20053;-62
2022/05/07 02:20:19;;;;;;;47.95;28.52;;;13.10;99.90;;;;;;5031718;28;20081;-62
2022/05/07 02:22:46;;;;;;;49.53;28.50;;;13.10;99.90;;;;;;5032113;28;20081;-63
2022/05/07 02:25:13;;;;;;;44.63;29.88;;;13.10;99.90;;;;;;5032772;28;20215;-62
2022/05/07 02:27:41;;;;;;;43.35;27.98;;;13.10;99.90;;;;;;5032992;28;20041;-62
2022/05/07 02:30:10;;;;;;;45.63;27.13;;;13.00;99.90;;;;;;5032223;28;20068;-63
2022/05/07 02:32:37;;;;;;;42.38;27.83;;;13.00;99.90;;;;;;5015655;28;20053;-63
2022/05/07 02:35:05;;;;;;;45.75;28.23;;;13.00;99.90;;;;;;5052548;28;20416;-62
2022/05/07 02:37:32;;;;;;;39.10;26.10;;;12.90;99.90;;;;;;5051885;28;20080;-62
2022/05/07 02:39:59;;;;;;;40.13;26.42;;;12.90;99.90;;;;;;5034798;28;20120;-62
2022/05/07 02:42:36;;;;;;;38.40;26.50;;;12.90;99.90;;;;;;5052478;28;20118;-63
2022/05/07 02:45:06;;;;;;;38.67;28.88;;;12.80;99.90;;;;;;5051662;28;20053;-63
2022/05/07 02:47:34;;;;;;;44.10;27.30;;;12.80;99.90;;;;;;5034824;28;20049;-62
2022/05/07 02:50:01;;;;;;;37.35;26.00;;;12.70;99.90;;;;;;5034668;28;20057;-62
2022/05/07 02:52:28;;;;;;;43.30;26.73;;;12.70;99.90;;;;;;5033846;28;20052;-62
2022/05/07 02:54:55;;;;;;;42.33;27.08;;;12.70;99.90;;;;;;5034445;28;20461;-62
2022/05/07 02:57:22;;;;;;;39.28;27.25;;;12.70;99.90;;;;;;5035256;28;20045;-62
2022/05/07 02:59:49;;;;;;;37.30;24.80;;;12.60;99.90;;;;;;5042358;28;20091;-62
2022/05/07 03:02:15;;;;;;;41.60;28.08;;;12.60;99.90;;;;;;5040928;28;20088;-62
2022/05/07 03:04:44;;;;;;;41.30;28.17;;;12.60;99.90;;;;;;5053749;28;20110;-62
2022/05/07 03:07:10;;;;;;;39.78;25.75;;;12.60;99.90;;;;;;5072211;28;20214;-62
2022/05/07 03:09:37;;;;;;;45.00;27.55;;;12.60;99.90;;;;;;5072836;28;20102;-61
2022/05/07 03:12:05;;;;;;;42.45;28.25;;;12.50;99.90;;;;;;5071832;28;20134;-62
2022/05/07 03:14:32;;;;;;;41.30;26.00;;;12.50;99.90;;;;;;5072239;28;20057;-61
2022/05/07 03:16:59;;;;;;;38.58;25.58;;;12.50;99.90;;;;;;5071823;28;20076;-61
2022/05/07 03:19:26;;;;;;;39.75;26.63;;;12.50;99.90;;;;;;5053753;28;20416;-62
2022/05/07 03:21:54;;;;;;;41.00;27.55;;;12.40;99.90;;;;;;5072537;28;20055;-62
2022/05/07 03:24:21;;;;;;;44.58;28.05;;;12.40;99.90;;;;;;5058041;28;20079;-62
2022/05/07 03:26:48;;;;;;;35.17;25.73;;;12.40;99.90;;;;;;5057632;28;20079;-62
2022/05/07 03:29:14;;;;;;;43.17;26.42;;;12.40;99.90;;;;;;5076090;28;20488;-62
2022/05/07 03:31:42;;;;;;;41.42;27.75;;;12.40;99.90;;;;;;5076063;28;20056;-62
2022/05/07 03:34:09;;;;;;;39.60;27.67;;;12.40;99.90;;;;;;5057459;28;20052;-62
2022/05/07 03:36:36;;;;;;;38.95;27.33;;;12.40;99.90;;;;;;5075947;28;20045;-62
2022/05/07 03:39:04;;;;;;;53.78;28.15;;;12.30;99.90;;;;;;5057882;28;20049;-62
2022/05/07 03:41:31;;;;;;;45.38;29.70;;;12.30;99.90;;;;;;5057263;28;20087;-62
2022/05/07 03:43:58;;;;;;;39.10;25.60;;;12.30;99.90;;;;;;5054204;28;20070;-62
2022/05/07 03:46:25;;;;;;;39.70;28.70;;;12.30;99.90;;;;;;5055665;28;20106;-62
2022/05/07 03:48:52;;;;;;;37.72;26.95;;;12.30;99.90;;;;;;5037050;28;20068;-62
2022/05/07 03:51:19;;;;;;;39.60;26.88;;;12.30;99.90;;;;;;5037851;28;20049;-62
2022/05/07 03:53:45;;;;;;;40.67;27.52;;;12.30;99.90;;;;;;5046758;28;20109;-62
2022/05/07 03:56:14;;;;;;;39.42;26.42;;;12.30;99.90;;;;;;5057375;28;20041;-62
2022/05/07 03:58:41;;;;;;;42.35;27.67;;;12.30;99.90;;;;;;5064795;28;20044;-62
2022/05/07 04:01:08;;;;;;;40.55;27.33;;;12.30;99.90;;;;;;5056541;28;20084;-62
2022/05/07 04:03:36;;;;;;;40.65;27.77;;;12.30;99.90;;;;;;5075259;28;20095;-62
2022/05/07 04:06:03;;;;;;;40.20;27.42;;;12.30;99.90;;;;;;5057385;28;20105;-62
2022/05/07 04:08:30;;;;;;;38.40;26.67;;;12.30;99.90;;;;;;5056896;28;20139;-62
2022/05/07 04:10:57;;;;;;;38.45;25.73;;;12.30;99.90;;;;;;5075221;28;20568;-62
2022/05/07 04:13:25;;;;;;;35.05;24.73;;;12.40;99.90;;;;;;5057489;28;20473;-62
2022/05/07 04:15:52;;;;;;;41.58;26.60;;;12.40;99.90;;;;;;5074397;28;20454;-63
2022/05/07 04:18:19;;;;;;;36.78;24.90;;;12.40;99.90;;;;;;5075252;28;20168;-63
2022/05/07 04:20:45;;;;;;;38.92;26.30;;;12.40;99.90;;;;;;5056964;28;20091;-63
2022/05/07 04:23:12;;;;;;;35.58;25.80;;;12.40;99.90;;;;;;5056743;28;20088;-63
2022/05/07 04:25:40;;;;;;;38.33;26.05;;;12.50;99.90;;;;;;5057100;28;20052;-63
2022/05/07 04:28:07;;;;;;;37.03;26.30;;;12.50;99.90;;;;;;5075240;28;20442;-63
2022/05/07 04:30:36;;;;;;;37.03;25.48;;;12.50;99.90;;;;;;5074266;28;20080;-63
2022/05/07 04:33:02;;;;;;;38.30;26.08;;;12.50;99.90;;;;;;5075014;28;20065;-63
2022/05/07 04:35:29;;;;;;;36.22;23.95;;;12.60;99.90;;;;;;5074489;28;20531;-63
2022/05/07 04:37:56;;;;;;;31.60;24.02;;;12.60;99.90;;;;;;5074109;28;20080;-63
2022/05/07 04:40:23;;;;;;;36.45;26.35;;;12.60;99.90;;;;;;5074556;28;20080;-62
2022/05/07 04:42:50;;;;;;;40.22;25.08;;;12.70;99.90;;;;;;5073843;28;20454;-62
2022/05/07 04:45:17;;;;;;;36.20;25.65;;;12.70;99.90;;;;;;5055483;28;20049;-62
2022/05/07 04:47:45;;;;;;;35.63;24.25;;;12.70;99.90;;;;;;5073694;28;20076;-62
2022/05/07 04:50:13;;;;;;;35.30;24.13;;;12.70;99.90;;;;;;5073660;28;20531;-62
2022/05/07 04:52:40;;;;;;;36.90;25.08;;;12.80;99.90;;;;;;5074476;28;20063;-61
2022/05/07 04:55:07;;;;;;;37.70;25.45;;;12.80;99.90;;;;;;5073933;28;20052;-61
2022/05/07 04:57:34;;;;;;;34.67;24.95;;;12.80;99.90;;;;;;5011377;28;20144;-62
2022/05/07 05:00:01;;;;;;;36.03;25.00;;;12.90;99.90;;;;;;5068502;28;20107;-61
2022/05/07 05:02:28;;;;;;;35.47;25.70;;;12.90;99.90;;;;;;5056281;28;20101;-62
2022/05/07 05:04:56;;;;;;;36.00;25.17;;;12.90;99.90;;;;;;5073547;28;20048;-62
2022/05/07 05:07:22;;;;;;;37.47;26.90;;;12.90;99.90;;;;;;5056632;28;20080;-62
2022/05/07 05:09:49;;;;;;;39.35;27.00;;;12.90;99.90;;;;;;5052890;28;20155;-63
2022/05/07 05:12:17;;;;;;;33.88;25.52;;;12.90;99.90;;;;;;5053335;28;20084;-62
2022/05/07 05:15:03;;;;;;;35.92;26.20;;;13.00;99.90;;;;;;5036608;28;20088;-62
2022/05/07 05:17:30;;;;;;;35.22;26.15;;;12.90;99.90;;;;;;5054063;28;20055;-62
2022/05/07 05:19:58;;;;;;;37.25;27.08;;;12.90;99.90;;;;;;5053411;28;20107;-62
2022/05/07 05:22:25;;;;;;;41.10;27.48;;;13.00;99.90;;;;;;5037831;28;20136;-61
2022/05/07 05:24:52;;;;;;;39.17;26.15;;;13.00;99.90;;;;;;5056124;28;20080;-62
2022/05/07 05:27:19;;;;;;;43.25;28.67;;;13.00;99.90;;;;;;5055303;28;20072;-62
2022/05/07 05:29:45;;;;;;;43.63;28.92;;;13.10;99.90;;;;;;5074004;28;20083;-61
2022/05/07 05:32:17;;;;;;;40.22;28.52;;;13.10;99.90;;;;;;5055034;28;20092;-62
2022/05/07 05:34:45;;;;;;;38.30;26.63;;;13.10;99.90;;;;;;5073914;28;20049;-62
2022/05/07 05:37:13;;;;;;;41.70;28.65;;;13.10;99.90;;;;;;5073124;28;20128;-62
2022/05/07 05:39:40;;;;;;;40.03;27.88;;;13.20;99.90;;;;;;5055172;28;20087;-62
2022/05/07 05:42:07;;;;;;;42.00;28.45;;;13.20;99.90;;;;;;5073635;28;20098;-62
2022/05/07 05:44:36;;;;;;;42.67;27.17;;;13.20;99.90;;;;;;5054874;28;20497;-62
2022/05/07 05:47:04;;;;;;;40.25;27.65;;;13.30;99.90;;;;;;5072467;28;20056;-62
2022/05/07 05:49:31;;;;;;;37.90;28.17;;;13.40;99.90;;;;;;5073348;28;20088;-63
2022/05/07 05:51:57;;;;;;;45.15;28.63;;;13.40;99.90;;;;;;5055328;28;20137;-63
2022/05/07 05:54:26;;;;;;;37.63;26.52;;;13.40;99.90;;;;;;5054440;28;20138;-63
2022/05/07 05:56:53;;;;;;;36.65;26.83;;;13.50;99.90;;;;;;5054991;28;20056;-62
2022/05/07 05:59:19;;;;;;;37.53;25.15;;;13.60;99.90;;;;;;5078866;28;20048;-62
2022/05/07 06:01:47;;;;;;;36.30;26.50;;;13.70;99.90;;;;;;5069050;28;20091;-63
2022/05/07 06:04:14;;;;;;;38.08;25.23;;;13.90;99.90;;;;;;5034693;28;20485;-62
2022/05/07 06:06:41;;;;;;;40.55;25.77;;;14.00;99.90;;;;;;5044567;28;20060;-63
2022/05/07 06:09:07;;;;;;;37.17;25.42;;;14.20;99.90;;;;;;5033257;28;20111;-62
2022/05/07 06:11:36;;;;;;;38.00;24.67;;;14.30;99.90;;;;;;5050392;28;20079;-63
2022/05/07 06:14:02;;;;;;;35.28;23.77;;;14.40;99.90;;;;;;5051179;28;20242;-63
2022/05/07 06:16:29;;;;;;;33.17;23.20;;;14.60;99.90;;;;;;5050489;28;20081;-62
2022/05/07 06:18:56;;;;;;;32.13;24.08;;;14.70;99.90;;;;;;5035628;28;20138;-63
2022/05/07 06:21:23;;;;;;;35.10;23.60;;;14.80;99.90;;;;;;5051119;28;20060;-62
2022/05/07 06:23:50;;;;;;;33.80;23.08;;;14.90;99.90;;;;;;5050507;28;20440;-62
2022/05/07 06:29:02;;;;;;;27.35;21.65;;;15.20;99.90;;;;;;5050594;28;20041;-62
2022/05/07 06:31:30;;;;;;;30.50;21.25;;;15.50;99.90;;;;;;5033591;28;20053;-62
2022/05/07 06:33:58;;;;;;;29.38;21.15;;;15.90;99.90;;;;;;5034370;28;20424;-62
2022/05/07 06:36:24;;;;;;;32.75;20.02;;;16.20;99.90;;;;;;5032110;28;20472;-62
2022/05/07 06:38:51;;;;;;;28.92;20.85;;;16.50;99.90;;;;;;5032999;28;20587;-63
2022/05/07 06:41:18;;;;;;;24.15;18.10;;;16.70;99.90;;;;;;5037110;28;20408;-62
2022/05/07 06:43:45;;;;;;;25.17;20.33;;;16.80;99.90;;;;;;5049504;28;20103;-62
2022/05/07 06:46:13;;;;;;;23.35;18.45;;;16.80;99.90;;;;;;5038549;28;20095;-62
2022/05/07 06:48:41;;;;;;;26.65;19.13;;;16.80;99.90;;;;;;5051846;28;20083;-63
2022/05/07 06:51:08;;;;;;;23.27;17.10;;;16.70;99.90;;;;;;5050679;28;20055;-63
2022/05/07 06:53:35;;;;;;;22.02;17.20;;;16.80;99.90;;;;;;5057320;28;20124;-62
2022/05/07 06:56:01;;;;;;;22.23;16.98;;;17.00;99.90;;;;;;5051476;28;20056;-63
2022/05/07 06:58:30;;;;;;;27.27;17.95;;;17.10;99.90;;;;;;5056614;28;20072;-62
2022/05/07 07:00:58;;;;;;;29.05;17.30;;;16.90;99.90;;;;;;5056276;28;20404;-62
2022/05/07 07:03:26;;;;;;;27.25;17.88;;;17.00;99.90;;;;;;5027286;28;20076;-62
2022/05/07 07:05:54;;;;;;;22.60;16.95;;;17.00;99.90;;;;;;5034969;28;20132;-62
2022/05/07 07:08:21;;;;;;;22.63;17.40;;;17.20;99.90;;;;;;5040647;28;20063;-62
2022/05/07 07:21:53;;;;;;;19.27;15.93;;;18.20;99.90;;;;;;5072403;22;20140;-69
2022/05/07 07:24:21;;;;;;;19.30;14.70;;;18.30;99.90;;;;;;5029662;28;20429;-76
2022/05/07 07:26:48;;;;;;;20.65;16.15;;;18.50;99.90;;;;;;5021938;28;20060;-76
2022/05/07 07:29:15;;;;;;;19.13;15.35;;;18.80;99.90;;;;;;5029094;28;20085;-75
2022/05/07 07:31:41;;;;;;;19.90;15.40;;;19.00;99.90;;;;;;5027506;28;20136;-76
2022/05/07 07:34:08;;;;;;;18.20;15.18;;;19.00;99.90;;;;;;5030117;28;20073;-75
2022/05/07 07:36:35;;;;;;;20.35;16.55;;;18.90;99.90;;;;;;5027651;28;20567;-76
2022/05/07 07:39:07;;;;;;;18.23;15.05;;;19.00;99.90;;;;;;5010957;28;20544;-76
2022/05/07 07:41:34;;;;;;;19.02;15.55;;;19.30;99.90;;;;;;5028404;28;20077;-77
2022/05/07 07:44:00;;;;;;;20.00;16.52;;;19.30;99.90;;;;;;5030254;28;20063;-76
2022/05/07 07:49:11;;;;;;;21.45;16.95;;;19.80;99.90;;;;;;5009770;28;20075;-76
2022/05/07 07:51:38;;;;;;;20.20;15.98;;;19.90;99.90;;;;;;5009883;28;20088;-77
2022/05/07 07:54:06;;;;;;;20.70;16.25;;;20.10;99.90;;;;;;5010515;28;20519;-77
2022/05/07 07:56:34;;;;;;;21.98;16.25;;;20.10;99.90;;;;;;5009235;28;20052;-76
2022/05/07 07:59:00;;;;;;;22.75;16.70;;;20.20;99.90;;;;;;5010566;28;20049;-77
2022/05/07 08:01:27;;;;;;;21.08;16.98;;;20.30;99.90;;;;;;5027248;28;20045;-75
2022/05/07 08:03:54;;;;;;;23.38;17.60;;;20.20;99.90;;;;;;5013371;28;20504;-76
2022/05/07 08:06:21;;;;;;;25.33;18.23;;;19.90;99.90;;;;;;5030113;28;20057;-76
2022/05/07 08:11:49;;;;;;;25.92;20.90;;;19.60;99.90;;;;;;4958407;28;20164;-77
2022/05/07 08:14:16;;;;;;;27.27;18.67;;;19.40;99.90;;;;;;4944798;28;22606;-77
2022/05/07 08:16:44;;;;;;;29.90;22.63;;;19.30;99.90;;;;;;4990447;28;20104;-76
2022/05/07 08:19:12;;;;;;;30.60;20.95;;;19.20;99.90;;;;;;5010530;28;20575;-78
2022/05/07 08:21:38;;;;;;;28.30;20.13;;;19.00;99.90;;;;;;5028505;28;20056;-75
2022/05/07 08:24:06;;;;;;;27.85;21.05;;;18.80;99.90;;;;;;5026535;28;20053;-77
2022/05/07 08:26:33;;;;;;;29.10;21.27;;;18.70;99.90;;;;;;5010756;28;20053;-75
2022/05/07 08:29:01;;;;;;;30.58;21.38;;;18.70;99.90;;;;;;5011373;28;20076;-77
2022/05/07 08:31:28;;;;;;;27.90;22.15;;;18.70;99.90;;;;;;5013678;28;20072;-76
2022/05/07 08:33:55;;;;;;;29.75;21.98;;;18.60;99.90;;;;;;5012382;28;20088;-77
2022/05/07 08:36:22;;;;;;;34.55;25.60;;;18.50;99.90;;;;;;5026506;28;20053;-77
2022/05/07 08:38:49;;;;;;;33.95;24.70;;;18.60;99.90;;;;;;5025912;28;20495;-77
2022/05/07 08:41:16;;;;;;;31.60;24.63;;;18.50;99.90;;;;;;5011372;28;20084;-78
2022/05/07 08:43:43;;;;;;;39.47;25.52;;;18.40;99.90;;;;;;5026647;28;20136;-79
2022/05/07 08:46:14;;;;;;;39.60;26.83;;;18.40;99.90;;;;;;5011546;28;20416;-77
2022/05/07 08:48:42;;;;;;;37.17;25.77;;;18.50;99.90;;;;;;5028487;28;20044;-76
2022/05/07 08:51:09;;;;;;;33.53;23.85;;;18.40;99.90;;;;;;5026091;28;20054;-72
2022/05/07 08:53:36;;;;;;;38.10;24.27;;;18.40;99.90;;;;;;5014686;28;20140;-77
2022/05/07 08:56:03;;;;;;;34.90;23.85;;;18.30;99.90;;;;;;5016321;28;20052;-77
2022/05/07 08:58:30;;;;;;;32.83;24.63;;;18.20;99.90;;;;;;5016419;28;20150;-77
2022/05/07 09:00:59;;;;;;;36.53;23.60;;;18.30;99.90;;;;;;5017458;28;20132;-76
2022/05/07 09:03:38;;;;;;;25.55;20.13;;;18.10;99.90;;;;;;5016727;28;20160;-76
2022/05/07 09:06:16;;;;;;;34.53;23.50;;;18.10;99.90;;;;;;5017160;28;20481;-76
2022/05/07 09:08:44;;;;;;;30.00;21.00;;;18.00;99.90;;;;;;5034727;28;20133;-76
2022/05/07 09:11:11;;;;;;;33.22;22.58;;;18.00;99.90;;;;;;5016367;28;20085;-75
2022/05/07 09:13:38;;;;;;;33.22;22.17;;;18.10;99.90;;;;;;5034843;28;20136;-76
2022/05/07 09:16:08;;;;;;;31.73;21.75;;;18.10;99.90;;;;;;5017062;28;20145;-76
2022/05/07 09:18:36;;;;;;;;;;;18.10;99.90;;;;;;5016320;28;20050;-76
2022/05/07 09:24:00;;;;;;;33.78;22.58;;;18.20;99.90;;;;;;5034261;28;20049;-76
2022/05/07 09:26:29;;;;;;;31.65;21.60;;;18.40;99.90;;;;;;5033723;28;20133;-76
2022/05/07 09:28:56;;;;;;;33.83;21.60;;;18.40;99.90;;;;;;5016808;28;20128;-76
2022/05/07 09:31:24;;;;;;;31.42;22.00;;;18.50;99.90;;;;;;5016558;28;20137;-76
2022/05/07 09:33:53;;;;;;;34.75;21.75;;;18.50;99.90;;;;;;5016513;28;20081;-75
2022/05/07 09:36:19;;;;;;;33.83;22.48;;;18.60;99.90;;;;;;5017234;28;20085;-75
2022/05/07 09:38:48;;;;;;;32.40;22.92;;;18.70;99.90;;;;;;5016199;28;20049;-74
2022/05/07 09:41:21;;;;;;;32.05;22.38;;;18.80;99.90;;;;;;5034596;28;20055;-75
2022/05/07 09:43:50;;;;;;;35.05;24.92;;;18.90;99.90;;;;;;5034131;28;20053;-77
2022/05/07 09:46:18;;;;;;;37.13;25.45;;;19.10;99.90;;;;;;5015858;28;20049;-76
2022/05/07 09:48:46;;;;;;;35.17;24.23;;;19.20;99.90;;;;;;5033857;28;20053;-76
2022/05/07 09:51:14;;;;;;;35.50;24.60;;;19.40;99.90;;;;;;5016301;28;20049;-76
2022/05/07 09:59:13;;;;;;;34.35;23.92;;;19.70;99.90;;;;;;5015857;28;20053;-76
2022/05/07 10:02:12;;;;;;;36.15;25.38;;;19.80;99.90;;;;;;5032925;28;20132;-76
2022/05/07 10:05:03;;;;;;;33.80;24.38;;;20.00;99.90;;;;;;4983854;28;20104;-76
2022/05/07 10:07:46;;;;;;;37.53;24.48;;;20.10;99.90;;;;;;5015635;28;20497;-75
2022/05/07 10:10:21;;;;;;;33.70;24.23;;;20.20;99.90;;;;;;5033956;28;20132;-76
2022/05/07 10:12:49;;;;;;;29.80;21.08;;;20.20;99.90;;;;;;5016291;28;20404;-77
2022/05/07 10:15:20;;;;;;;33.83;22.90;;;20.40;99.90;;;;;;5015401;28;20057;-77
2022/05/07 10:17:58;;;;;;;29.73;21.65;;;20.40;99.90;;;;;;5016816;28;20327;-76
2022/05/07 10:20:25;;;;;;;34.55;23.67;;;20.40;99.90;;;;;;5033082;28;20132;-76
2022/05/07 10:22:57;;;;;;;34.78;21.67;;;20.40;99.90;;;;;;5031732;28;20089;-76
2022/05/07 10:25:24;;;;;;;28.88;21.00;;;20.40;99.90;;;;;;4996072;28;20085;-77
2022/05/07 10:27:51;;;;;;;31.42;21.38;;;20.40;99.90;;;;;;5020175;28;20154;-76
2022/05/07 10:30:21;;;;;;;30.17;18.95;;;20.40;99.90;;;;;;5015410;28;20041;-77
2022/05/07 10:32:56;;;;;;;31.88;23.45;;;20.40;99.90;;;;;;5015439;28;20401;-77
2022/05/07 10:35:39;;;;;;;33.45;22.98;;;20.20;99.90;;;;;;5014794;28;20057;-77
2022/05/07 10:38:08;;;;;;;26.73;19.60;;;19.90;99.90;;;;;;5015625;28;20144;-75
2022/05/07 10:40:35;;;;;;;39.13;26.45;;;19.70;99.90;;;;;;5015596;28;20386;-77
2022/05/07 10:43:03;;;;;;;33.45;22.42;;;19.60;99.90;;;;;;5014002;28;20132;-76
2022/05/07 10:45:40;;;;;;;37.15;24.20;;;19.60;99.90;;;;;;5015486;28;20081;-76
2022/05/07 10:48:17;;;;;;;48.90;25.05;;;19.50;99.90;;;;;;5033202;28;20057;-75
2022/05/07 10:50:51;;;;;;;46.40;26.75;;;19.40;99.90;;;;;;5011365;28;20073;-77
2022/05/07 10:53:21;;;;;;;46.45;22.80;;;19.50;99.90;;;;;;5001441;28;20060;-76
2022/05/07 10:55:51;;;;;;;37.20;23.38;;;19.40;99.90;;;;;;5023558;28;20045;-76
2022/05/07 10:58:27;;;;;;;41.17;22.95;;;19.40;99.90;;;;;;4995304;28;20136;-76
2022/05/07 11:00:56;;;;;;;33.10;22.63;;;19.50;99.90;;;;;;4993880;28;20053;-76
2022/05/07 11:03:26;;;;;;;33.13;22.77;;;19.60;99.90;;;;;;5008958;28;20462;-77
2022/05/07 11:05:59;;;;;;;32.83;20.40;;;19.50;99.90;;;;;;5010655;28;20057;-76
2022/05/07 11:08:29;;;;;;;29.35;20.17;;;19.50;99.90;;;;;;5007107;28;20093;-76
2022/05/07 11:11:07;;;;;;;;;;;19.60;99.90;;;;;;5013979;28;20046;-76
2022/05/07 11:13:39;;;;;;;26.98;18.45;;;19.50;99.90;;;;;;5005963;28;19925;-76
2022/05/07 11:16:06;;;;;;;26.27;19.33;;;19.60;99.90;;;;;;5007092;28;20066;-76
2022/05/07 11:18:34;;;;;;;27.17;18.25;;;19.60;99.90;;;;;;5011385;28;20050;-75
2022/05/07 11:21:03;;;;;;;23.27;16.13;;;19.50;99.90;;;;;;5026879;28;20050;-74
2022/05/07 11:23:35;;;;;;;25.90;14.80;;;19.40;99.90;;;;;;5026436;28;20140;-74
2022/05/07 11:26:11;;;;;;;21.88;15.02;;;19.40;99.90;;;;;;5002754;28;20049;-74
2022/05/07 11:28:39;;;;;;;22.33;13.70;;;19.20;99.90;;;;;;5004414;28;20077;-76
2022/05/07 11:31:06;;;;;;;17.48;11.90;;;19.20;99.90;;;;;;5031848;28;20204;-76
2022/05/07 11:33:32;;;;;;;23.45;12.00;;;19.30;99.90;;;;;;5015646;28;20140;-76
2022/05/07 11:36:05;;;;;;;18.00;12.23;;;19.10;99.90;;;;;;5033719;28;20096;-75
2022/05/07 11:38:33;;;;;;;20.00;11.35;;;19.10;99.90;;;;;;5032228;28;20850;-77
2022/05/07 11:41:09;;;;;;;17.13;9.93;;;19.50;99.90;;;;;;5014776;28;20152;-76
2022/05/07 11:46:20;;;;;;;8.90;6.13;;;20.50;99.90;;;;;;5017699;28;20054;-76
2022/05/07 11:48:47;;;;;;;8.50;6.30;;;20.80;99.90;;;;;;5035961;28;20477;-76
2022/05/07 11:51:24;;;;;;;9.85;6.32;;;20.80;99.90;;;;;;5035872;28;20095;-76
2022/05/07 11:53:52;;;;;;;12.23;6.70;;;20.60;99.90;;;;;;5035147;28;20053;-76
2022/05/07 11:56:20;;;;;;;8.75;5.82;;;20.70;99.90;;;;;;5036140;28;20064;-75
2022/05/07 11:58:49;;;;;;;9.15;6.93;;;20.80;99.90;;;;;;5035591;28;20088;-77
2022/05/07 12:01:20;;;;;;;10.95;6.70;;;21.00;99.90;;;;;;5017758;28;20436;-77
2022/05/07 12:03:47;;;;;;;10.02;7.07;;;21.00;99.90;;;;;;5018342;28;20444;-77
2022/05/07 12:06:24;;;;;;;11.88;7.95;;;20.80;99.90;;;;;;5035517;28;20128;-77
2022/05/07 12:08:52;;;;;;;12.75;8.75;;;20.80;99.90;;;;;;5017998;28;20132;-77
2022/05/07 12:11:20;;;;;;;10.23;7.38;;;20.70;99.90;;;;;;5035984;28;20132;-77
2022/05/07 12:13:47;;;;;;;12.27;7.15;;;20.60;99.90;;;;;;5034756;28;20053;-77
2022/05/07 12:18:59;;;;;;;10.70;7.30;;;20.50;99.90;;;;;;5017845;28;20484;-77
2022/05/07 12:29:52;;;;;;;11.95;8.13;;;20.40;99.90;;;;;;5017483;28;20041;-76
2022/05/07 12:32:19;;;;;;;13.02;8.90;;;20.20;99.90;;;;;;5035538;28;20120;-76
2022/05/07 12:34:47;;;;;;;9.90;7.55;;;20.30;99.90;;;;;;5016968;28;20057;-77
2022/05/07 12:37:15;;;;;;;13.10;8.93;;;20.40;99.90;;;;;;5035866;28;20077;-76
2022/05/07 12:39:43;;;;;;;12.73;9.05;;;20.50;99.90;;;;;;5018410;28;20107;-76
2022/05/07 12:42:12;;;;;;;13.60;9.70;;;20.50;99.90;;;;;;5016560;28;20076;-76
2022/05/07 12:44:42;;;;;;;15.30;9.68;;;20.90;99.90;;;;;;5017198;28;20556;-77
2022/05/07 12:47:09;;;;;;;12.95;9.32;;;21.10;99.90;;;;;;5017440;28;20057;-77
2022/05/07 12:49:36;;;;;;;14.45;10.93;;;21.50;99.90;;;;;;5016699;28;20132;-77
2022/05/07 12:52:03;;;;;;;16.27;13.98;;;21.30;99.90;;;;;;5017404;28;20140;-76
2022/05/07 12:54:30;;;;;;;16.45;13.05;;;21.00;99.90;;;;;;5033023;28;20061;-76
2022/05/07 12:56:59;;;;;;;18.40;11.73;;;20.80;99.90;;;;;;5033803;28;20049;-77
2022/05/07 12:59:26;;;;;;;17.00;12.15;;;20.70;99.90;;;;;;5034900;28;20053;-77
2022/05/07 13:01:52;;;;;;;17.52;12.00;;;21.10;99.90;;;;;;5034754;28;20136;-76
2022/05/07 13:04:22;;;;;;;15.95;11.82;;;21.60;99.90;;;;;;5016219;28;20144;-77
2022/05/07 13:06:49;;;;;;;17.30;11.57;;;22.20;99.90;;;;;;5017239;28;20448;-77
2022/05/07 13:09:15;;;;;;;14.90;10.93;;;22.10;99.90;;;;;;5015458;28;20092;-77
2022/05/07 13:11:43;;;;;;;14.90;9.35;;;22.30;99.90;;;;;;5034012;28;20129;-77
2022/05/07 13:14:11;;;;;;;15.57;8.93;;;22.30;99.90;;;;;;5016903;28;20136;-77
2022/05/07 13:16:38;;;;;;;12.82;8.20;;;22.50;99.90;;;;;;5034025;28;20109;-71
2022/05/07 13:19:05;;;;;;;18.88;9.90;;;22.60;99.90;;;;;;5007544;28;20473;-76